createdAt,value
2022-10-05T00:00:35.366Z,1013.16
2022-10-05T00:01:35.591Z,1013.17
2022-10-05T00:02:35.796Z,1013.19
2022-10-05T00:03:36.033Z,1013.19
2022-10-05T00:04:36.229Z,1013.16
2022-10-05T00:05:36.426Z,1013.19
2022-10-05T00:06:36.625Z,1013.21
2022-10-05T00:07:36.835Z,1013.22
2022-10-05T00:08:37.033Z,1013.22
2022-10-05T00:09:37.232Z,1013.26
2022-10-05T00:10:37.427Z,1013.24
2022-10-05T00:11:37.621Z,1013.26
2022-10-05T00:12:37.853Z,1013.23
2022-10-05T00:13:38.052Z,1013.22
2022-10-05T00:14:38.250Z,1013.20
2022-10-05T00:15:38.461Z,1013.20
2022-10-05T00:16:38.719Z,1013.14
2022-10-05T00:17:38.917Z,1013.11
2022-10-05T00:18:39.107Z,1013.06
2022-10-05T00:19:39.295Z,1013.04
2022-10-05T00:20:39.508Z,1012.97
2022-10-05T00:21:46.722Z,1012.97
2022-10-05T00:22:39.914Z,1012.97
2022-10-05T00:23:40.111Z,1013.06
2022-10-05T00:24:40.311Z,1013.12
2022-10-05T00:25:40.546Z,1013.17
2022-10-05T00:26:40.757Z,1013.19
2022-10-05T00:27:40.964Z,1013.22
2022-10-05T00:28:41.184Z,1013.20
2022-10-05T00:29:41.384Z,1013.19
2022-10-05T00:30:41.607Z,1013.18
2022-10-05T00:31:41.826Z,1013.18
2022-10-05T00:32:42.066Z,1013.23
2022-10-05T00:33:42.282Z,1013.20
2022-10-05T00:34:42.467Z,1013.24
2022-10-05T00:35:42.667Z,1013.21
2022-10-05T00:36:42.976Z,1013.18
2022-10-05T00:37:43.134Z,1013.23
2022-10-05T00:38:43.333Z,1013.20
2022-10-05T00:39:43.536Z,1013.16
2022-10-05T00:40:43.727Z,1013.17
2022-10-05T00:41:43.934Z,1013.12
2022-10-05T00:42:44.122Z,1013.17
2022-10-05T00:43:44.324Z,1013.18
2022-10-05T00:44:44.543Z,1013.17
2022-10-05T00:45:44.783Z,1013.19
2022-10-05T00:46:45.290Z,1013.15
2022-10-05T00:47:45.214Z,1013.09
2022-10-05T00:48:45.398Z,1013.03
2022-10-05T00:49:45.650Z,1013.04
2022-10-05T00:50:45.854Z,1012.99
2022-10-05T00:51:46.061Z,1012.98
2022-10-05T00:52:46.279Z,1012.92
2022-10-05T00:53:46.509Z,1012.90
2022-10-05T00:54:46.692Z,1012.93
2022-10-05T00:55:46.919Z,1012.97
2022-10-05T00:56:47.525Z,1012.97
2022-10-05T00:57:47.317Z,1012.99
2022-10-05T00:58:47.533Z,1012.95
2022-10-05T00:59:47.747Z,1012.94
2022-10-05T01:00:50.965Z,1012.92
2022-10-05T01:01:48.271Z,1012.92
2022-10-05T01:02:48.327Z,1012.84
2022-10-05T01:03:48.510Z,1012.77
2022-10-05T01:04:48.690Z,1012.82
2022-10-05T01:05:48.883Z,1012.86
2022-10-05T01:06:49.074Z,1012.81
2022-10-05T01:07:49.297Z,1012.78
2022-10-05T01:08:49.538Z,1012.80
2022-10-05T01:09:50.716Z,1012.79
2022-10-05T01:10:49.910Z,1012.85
2022-10-05T01:11:50.118Z,1012.77
2022-10-05T01:12:50.323Z,1012.75
2022-10-05T01:13:50.536Z,1012.80
2022-10-05T01:14:50.767Z,1012.81
2022-10-05T01:15:50.973Z,1012.78
2022-10-05T01:16:51.418Z,1012.82
2022-10-05T01:17:51.368Z,1012.82
2022-10-05T01:18:51.564Z,1012.78
2022-10-05T01:19:51.761Z,1012.78
2022-10-05T01:20:51.956Z,1012.84
2022-10-05T01:21:59.121Z,1012.78
2022-10-05T01:22:52.303Z,1012.75
2022-10-05T01:23:52.502Z,1012.74
2022-10-05T01:24:52.687Z,1012.68
2022-10-05T01:25:52.878Z,1012.66
2022-10-05T01:26:53.060Z,1012.63
2022-10-05T01:27:53.361Z,1012.57
2022-10-05T01:28:53.415Z,1012.52
2022-10-05T01:29:53.606Z,1012.53
2022-10-05T01:30:53.802Z,1012.50
2022-10-05T01:31:54.017Z,1012.53
2022-10-05T01:32:54.396Z,1012.53
2022-10-05T01:33:54.350Z,1012.58
2022-10-05T01:34:54.558Z,1012.64
2022-10-05T01:35:54.766Z,1012.67
2022-10-05T01:36:54.964Z,1012.65
2022-10-05T01:37:55.207Z,1012.67
2022-10-05T01:38:55.318Z,1012.62
2022-10-05T01:39:55.537Z,1012.59
2022-10-05T01:40:55.735Z,1012.62
2022-10-05T01:41:55.924Z,1012.61
2022-10-05T01:42:56.118Z,1012.63
2022-10-05T01:43:56.310Z,1012.65
2022-10-05T01:44:56.500Z,1012.66
2022-10-05T01:45:56.728Z,1012.68
2022-10-05T01:46:56.909Z,1012.68
2022-10-05T01:47:57.119Z,1012.68
2022-10-05T01:48:57.378Z,1012.66
2022-10-05T01:49:57.530Z,1012.64
2022-10-05T01:50:57.735Z,1012.61
2022-10-05T01:51:57.920Z,1012.61
2022-10-05T01:52:58.118Z,1012.61
2022-10-05T01:53:58.310Z,1012.59
2022-10-05T01:54:58.504Z,1012.58
2022-10-05T01:55:58.714Z,1012.60
2022-10-05T01:56:58.899Z,1012.62
2022-10-05T01:57:59.124Z,1012.66
2022-10-05T01:58:59.323Z,1012.65
2022-10-05T02:00:00.476Z,1012.68
2022-10-05T02:00:59.686Z,1012.65
2022-10-05T02:01:59.926Z,1012.70
2022-10-05T02:03:00.122Z,1012.73
2022-10-05T02:04:00.314Z,1012.72
2022-10-05T02:05:02.330Z,1012.74
2022-10-05T02:06:00.734Z,1012.73
2022-10-05T02:07:00.912Z,1012.78
2022-10-05T02:08:01.130Z,1012.79
2022-10-05T02:09:02.324Z,1012.76
2022-10-05T02:10:01.553Z,1012.79
2022-10-05T02:11:02.593Z,1012.81
2022-10-05T02:12:01.947Z,1012.82
2022-10-05T02:13:02.044Z,1012.85
2022-10-05T02:14:02.242Z,1012.87
2022-10-05T02:15:03.427Z,1012.88
2022-10-05T02:16:02.639Z,1012.87
2022-10-05T02:17:02.800Z,1012.86
2022-10-05T02:18:02.900Z,1012.88
2022-10-05T02:19:03.121Z,1012.85
2022-10-05T02:20:03.313Z,1012.80
2022-10-05T02:21:03.519Z,1012.77
2022-10-05T02:22:03.723Z,1012.79
2022-10-05T02:23:03.940Z,1012.81
2022-10-05T02:24:04.130Z,1012.81
2022-10-05T02:25:04.325Z,1012.79
2022-10-05T02:26:04.530Z,1012.79
2022-10-05T02:27:04.727Z,1012.78
2022-10-05T02:28:05.123Z,1012.76
2022-10-05T02:29:05.078Z,1012.77
2022-10-05T02:30:06.269Z,1012.79
2022-10-05T02:31:05.539Z,1012.79
2022-10-05T02:32:05.635Z,1012.79
2022-10-05T02:33:05.852Z,1012.81
2022-10-05T02:34:06.047Z,1012.79
2022-10-05T02:35:06.245Z,1012.78
2022-10-05T02:36:06.445Z,1012.75
2022-10-05T02:37:06.688Z,1012.74
2022-10-05T02:38:06.919Z,1012.74
2022-10-05T02:39:07.124Z,1012.79
2022-10-05T02:40:07.348Z,1012.81
2022-10-05T02:41:07.540Z,1012.82
2022-10-05T02:42:07.748Z,1012.87
2022-10-05T02:43:07.956Z,1012.81
2022-10-05T02:44:08.145Z,1012.80
2022-10-05T02:45:08.336Z,1012.79
2022-10-05T02:46:08.613Z,1012.81
2022-10-05T02:47:08.691Z,1012.81
2022-10-05T02:48:08.913Z,1012.80
2022-10-05T02:49:09.119Z,1012.80
2022-10-05T02:50:09.324Z,1012.79
2022-10-05T02:51:09.515Z,1012.79
2022-10-05T02:52:09.727Z,1012.79
2022-10-05T02:53:09.933Z,1012.79
2022-10-05T02:54:10.140Z,1012.79
2022-10-05T02:55:10.346Z,1012.77
2022-10-05T02:56:10.545Z,1012.76
2022-10-05T02:57:10.742Z,1012.76
2022-10-05T02:58:10.965Z,1012.74
2022-10-05T02:59:11.190Z,1012.72
2022-10-05T03:00:11.393Z,1012.74
2022-10-05T03:01:11.688Z,1012.70
2022-10-05T03:02:11.838Z,1012.69
2022-10-05T03:03:12.028Z,1012.66
2022-10-05T03:04:12.230Z,1012.65
2022-10-05T03:05:12.456Z,1012.63
2022-10-05T03:06:12.669Z,1012.71
2022-10-05T03:07:12.855Z,1012.67
2022-10-05T03:08:13.094Z,1012.65
2022-10-05T03:09:13.278Z,1012.64
2022-10-05T03:10:13.471Z,1012.63
2022-10-05T03:11:13.669Z,1012.64
2022-10-05T03:12:13.862Z,1012.61
2022-10-05T03:13:14.076Z,1012.61
2022-10-05T03:14:14.299Z,1012.61
2022-10-05T03:15:14.511Z,1012.61
2022-10-05T03:16:14.767Z,1012.64
2022-10-05T03:17:14.958Z,1012.63
2022-10-05T03:18:15.167Z,1012.62
2022-10-05T03:19:15.377Z,1012.62
2022-10-05T03:20:15.572Z,1012.57
2022-10-05T03:21:15.778Z,1012.60
2022-10-05T03:22:15.967Z,1012.56
2022-10-05T03:23:16.181Z,1012.54
2022-10-05T03:24:16.403Z,1012.54
2022-10-05T03:25:16.593Z,1012.52
2022-10-05T03:26:16.785Z,1012.54
2022-10-05T03:27:16.978Z,1012.52
2022-10-05T03:28:17.266Z,1012.47
2022-10-05T03:29:17.339Z,1012.47
2022-10-05T03:30:17.663Z,1012.47
2022-10-05T03:31:17.818Z,1012.43
2022-10-05T03:32:17.947Z,1012.40
2022-10-05T03:33:18.166Z,1012.44
2022-10-05T03:34:18.365Z,1012.39
2022-10-05T03:35:18.547Z,1012.42
2022-10-05T03:36:18.752Z,1012.40
2022-10-05T03:37:18.960Z,1012.41
2022-10-05T03:38:19.162Z,1012.43
2022-10-05T03:39:19.367Z,1012.44
2022-10-05T03:40:19.592Z,1012.42
2022-10-05T03:41:19.773Z,1012.38
2022-10-05T03:42:19.966Z,1012.35
2022-10-05T03:43:20.170Z,1012.34
2022-10-05T03:44:20.373Z,1012.28
2022-10-05T03:45:21.540Z,1012.28
2022-10-05T03:46:20.829Z,1012.35
2022-10-05T03:47:20.887Z,1012.32
2022-10-05T03:48:21.076Z,1012.35
2022-10-05T03:49:21.288Z,1012.30
2022-10-05T03:50:21.490Z,1012.26
2022-10-05T03:51:21.686Z,1012.27
2022-10-05T03:52:21.923Z,1012.23
2022-10-05T03:53:22.127Z,1012.24
2022-10-05T03:54:22.340Z,1012.21
2022-10-05T03:55:22.542Z,1012.22
2022-10-05T03:56:22.762Z,1012.21
2022-10-05T03:57:22.965Z,1012.18
2022-10-05T03:58:23.169Z,1012.15
2022-10-05T03:59:23.406Z,1012.13
2022-10-05T04:00:23.508Z,1012.21
2022-10-05T04:01:23.756Z,1012.14
2022-10-05T04:02:24.003Z,1012.11
2022-10-05T04:03:24.141Z,1012.07
2022-10-05T04:04:24.346Z,1012.05
2022-10-05T04:05:24.578Z,1012.02
2022-10-05T04:06:24.795Z,1012.07
2022-10-05T04:07:25.002Z,1012.08
2022-10-05T04:08:25.224Z,1012.09
2022-10-05T04:09:25.415Z,1012.05
2022-10-05T04:10:25.648Z,1012.10
2022-10-05T04:11:25.836Z,1012.08
2022-10-05T04:12:26.030Z,1012.10
2022-10-05T04:13:26.241Z,1012.09
2022-10-05T04:14:26.431Z,1012.10
2022-10-05T04:15:26.628Z,1012.16
2022-10-05T04:16:26.863Z,1012.12
2022-10-05T04:17:27.050Z,1012.07
2022-10-05T04:18:27.267Z,1012.12
2022-10-05T04:19:27.725Z,1012.11
2022-10-05T04:20:27.706Z,1012.08
2022-10-05T04:21:27.985Z,1012.11
2022-10-05T04:22:28.067Z,1012.14
2022-10-05T04:23:28.297Z,1012.13
2022-10-05T04:24:28.521Z,1012.11
2022-10-05T04:25:28.732Z,1012.13
2022-10-05T04:26:28.929Z,1012.12
2022-10-05T04:27:29.146Z,1012.17
2022-10-05T04:28:32.122Z,1012.19
2022-10-05T04:29:29.567Z,1012.15
2022-10-05T04:30:29.787Z,1012.18
2022-10-05T04:31:30.009Z,1012.18
2022-10-05T04:32:30.229Z,1012.18
2022-10-05T04:33:30.464Z,1012.16
2022-10-05T04:34:30.661Z,1012.13
2022-10-05T04:35:30.894Z,1012.14
2022-10-05T04:36:31.083Z,1012.12
2022-10-05T04:37:31.311Z,1012.12
2022-10-05T04:38:31.506Z,1012.08
2022-10-05T04:39:31.797Z,1012.07
2022-10-05T04:40:31.842Z,1012.05
2022-10-05T04:41:32.066Z,1012.06
2022-10-05T04:42:32.244Z,1012.08
2022-10-05T04:43:32.406Z,1012.09
2022-10-05T04:44:32.587Z,1012.13
2022-10-05T04:45:32.837Z,1012.19
2022-10-05T04:46:33.084Z,1012.14
2022-10-05T04:47:33.258Z,1012.13
2022-10-05T04:48:33.962Z,1012.18
2022-10-05T04:49:33.689Z,1012.15
2022-10-05T04:50:33.893Z,1012.17
2022-10-05T04:51:34.074Z,1012.19
2022-10-05T04:52:34.254Z,1012.20
2022-10-05T04:53:34.473Z,1012.16
2022-10-05T04:54:34.655Z,1012.20
2022-10-05T04:55:34.856Z,1012.15
2022-10-05T04:56:35.026Z,1012.16
2022-10-05T04:57:35.218Z,1012.14
2022-10-05T04:58:40.023Z,1012.15
2022-10-05T04:59:36.595Z,1012.15
2022-10-05T05:00:35.853Z,1012.14
2022-10-05T05:01:35.964Z,1012.19
2022-10-05T05:02:36.176Z,1012.15
2022-10-05T05:03:36.424Z,1012.12
2022-10-05T05:04:36.570Z,1012.09
2022-10-05T05:05:48.413Z,1012.11
2022-10-05T05:06:37.995Z,1012.10
2022-10-05T05:07:37.173Z,1012.11
2022-10-05T05:08:37.394Z,1012.09
2022-10-05T05:09:37.576Z,1012.07
2022-10-05T05:10:37.813Z,1012.04
2022-10-05T05:11:38.015Z,1012.03
2022-10-05T05:12:38.209Z,1011.99
2022-10-05T05:13:38.420Z,1012.03
2022-10-05T05:14:38.608Z,1012.05
2022-10-05T05:15:38.837Z,1012.09
2022-10-05T05:16:39.037Z,1012.07
2022-10-05T05:17:39.244Z,1012.04
2022-10-05T05:18:39.513Z,1012.04
2022-10-05T05:19:39.587Z,1012.08
2022-10-05T05:20:39.781Z,1012.11
2022-10-05T05:21:40.011Z,1012.18
2022-10-05T05:22:40.213Z,1012.20
2022-10-05T05:23:40.552Z,1012.19
2022-10-05T05:24:40.634Z,1012.20
2022-10-05T05:25:40.831Z,1012.20
2022-10-05T05:26:41.030Z,1012.16
2022-10-05T05:27:41.230Z,1012.20
2022-10-05T05:28:41.531Z,1012.15
2022-10-05T05:29:41.642Z,1012.14
2022-10-05T05:30:41.829Z,1012.11
2022-10-05T05:31:42.086Z,1012.09
2022-10-05T05:32:42.234Z,1012.03
2022-10-05T05:33:42.449Z,1012.01
2022-10-05T05:34:42.648Z,1012.03
2022-10-05T05:35:42.854Z,1012.01
2022-10-05T05:36:43.263Z,1011.93
2022-10-05T05:37:43.331Z,1011.95
2022-10-05T05:38:43.478Z,1011.97
2022-10-05T05:39:43.696Z,1011.92
2022-10-05T05:40:43.889Z,1011.92
2022-10-05T05:41:44.087Z,1011.89
2022-10-05T05:42:44.290Z,1011.89
2022-10-05T05:43:44.495Z,1011.76
2022-10-05T05:44:44.692Z,1011.79
2022-10-05T05:45:44.905Z,1011.79
2022-10-05T05:47:03.042Z,1011.77
2022-10-05T05:47:46.386Z,1011.76
2022-10-05T05:48:45.627Z,1011.85
2022-10-05T05:49:45.835Z,1011.83
2022-10-05T05:50:46.054Z,1011.80
2022-10-05T05:51:46.255Z,1011.86
2022-10-05T05:52:46.476Z,1011.86
2022-10-05T05:53:46.686Z,1011.90
2022-10-05T05:54:46.885Z,1011.89
2022-10-05T05:55:47.115Z,1011.96
2022-10-05T05:56:47.690Z,1011.97
2022-10-05T05:57:47.544Z,1011.98
2022-10-05T05:58:47.773Z,1012.01
2022-10-05T05:59:47.991Z,1012.02
2022-10-05T06:00:48.206Z,1012.03
2022-10-05T06:01:48.563Z,1012.01
2022-10-05T06:02:48.645Z,1011.98
2022-10-05T06:03:48.838Z,1011.95
2022-10-05T06:04:49.038Z,1011.96
2022-10-05T06:05:49.262Z,1011.95
2022-10-05T06:06:49.787Z,1011.97
2022-10-05T06:07:49.693Z,1011.98
2022-10-05T06:08:49.926Z,1011.98
2022-10-05T06:09:50.122Z,1011.99
2022-10-05T06:10:50.319Z,1011.98
2022-10-05T06:11:50.553Z,1011.99
2022-10-05T06:12:50.750Z,1011.98
2022-10-05T06:13:50.969Z,1011.99
2022-10-05T06:14:51.169Z,1012.01
2022-10-05T06:15:51.369Z,1012.03
2022-10-05T06:16:51.855Z,1012.03
2022-10-05T06:17:51.837Z,1012.09
2022-10-05T06:18:51.956Z,1012.07
2022-10-05T06:19:52.166Z,1012.06
2022-10-05T06:20:52.354Z,1012.13
2022-10-05T06:21:59.560Z,1012.07
2022-10-05T06:22:52.726Z,1012.08
2022-10-05T06:23:52.930Z,1012.10
2022-10-05T06:24:53.122Z,1012.03
2022-10-05T06:25:53.328Z,1012.09
2022-10-05T06:26:53.512Z,1012.12
2022-10-05T06:27:53.747Z,1012.10
2022-10-05T06:28:53.968Z,1012.12
2022-10-05T06:29:54.148Z,1012.07
2022-10-05T06:30:54.317Z,1012.17
2022-10-05T06:31:58.698Z,1012.17
2022-10-05T06:32:54.694Z,1012.21
2022-10-05T06:33:54.891Z,1012.16
2022-10-05T06:34:55.081Z,1012.15
2022-10-05T06:35:55.359Z,1012.13
2022-10-05T06:36:55.440Z,1012.16
2022-10-05T06:37:55.626Z,1012.14
2022-10-05T06:38:55.826Z,1012.12
2022-10-05T06:40:00.772Z,1012.10
2022-10-05T06:40:57.169Z,1012.15
2022-10-05T06:41:56.356Z,1012.10
2022-10-05T06:42:56.529Z,1012.10
2022-10-05T06:43:56.760Z,1012.16
2022-10-05T06:44:56.933Z,1012.17
2022-10-05T06:45:57.154Z,1012.17
2022-10-05T06:46:57.323Z,1012.18
2022-10-05T06:48:00.474Z,1012.12
2022-10-05T06:48:58.668Z,1012.10
2022-10-05T06:49:57.887Z,1012.09
2022-10-05T06:50:58.085Z,1012.14
2022-10-05T06:51:58.302Z,1012.15
2022-10-05T06:52:58.488Z,1012.17
2022-10-05T06:53:58.687Z,1012.15
2022-10-05T06:54:58.858Z,1012.19
2022-10-05T06:55:59.057Z,1012.19
2022-10-05T06:56:59.239Z,1012.22
2022-10-05T06:57:59.433Z,1012.22
2022-10-05T06:58:59.623Z,1012.22
2022-10-05T06:59:59.812Z,1012.21
2022-10-05T07:01:00.070Z,1012.22
2022-10-05T07:02:00.246Z,1012.19
2022-10-05T07:03:00.427Z,1012.17
2022-10-05T07:04:00.634Z,1012.13
2022-10-05T07:05:00.814Z,1012.12
2022-10-05T07:06:00.996Z,1012.13
2022-10-05T07:07:01.165Z,1012.15
2022-10-05T07:08:01.351Z,1012.15
2022-10-05T07:09:01.541Z,1012.16
2022-10-05T07:10:01.745Z,1012.25
2022-10-05T07:11:01.903Z,1012.20
2022-10-05T07:12:05.068Z,1012.24
2022-10-05T07:13:02.309Z,1012.23
2022-10-05T07:14:02.535Z,1012.17
2022-10-05T07:15:02.727Z,1012.21
2022-10-05T07:16:02.926Z,1012.17
2022-10-05T07:17:03.100Z,1012.17
2022-10-05T07:18:03.317Z,1012.13
2022-10-05T07:19:03.522Z,1012.12
2022-10-05T07:20:03.716Z,1012.18
2022-10-05T07:21:03.880Z,1012.21
2022-10-05T07:22:04.080Z,1012.22
2022-10-05T07:23:04.253Z,1012.15
2022-10-05T07:24:04.460Z,1012.17
2022-10-05T07:25:04.623Z,1012.16
2022-10-05T07:26:04.808Z,1012.10
2022-10-05T07:27:04.977Z,1012.07
2022-10-05T07:28:05.236Z,1012.10
2022-10-05T07:29:05.301Z,1012.15
2022-10-05T07:30:05.482Z,1012.16
2022-10-05T07:31:05.741Z,1012.17
2022-10-05T07:32:05.804Z,1012.14
2022-10-05T07:33:05.994Z,1012.19
2022-10-05T07:34:06.192Z,1012.18
2022-10-05T07:35:06.378Z,1012.18
2022-10-05T07:36:06.541Z,1012.12
2022-10-05T07:37:06.713Z,1012.14
2022-10-05T07:38:06.873Z,1012.13
2022-10-05T07:39:07.082Z,1012.12
2022-10-05T07:40:07.247Z,1012.16
2022-10-05T07:41:07.446Z,1012.09
2022-10-05T07:42:07.580Z,1012.11
2022-10-05T07:43:07.754Z,1012.13
2022-10-05T07:44:12.509Z,1012.23
2022-10-05T07:45:09.052Z,1012.25
2022-10-05T07:46:08.259Z,1012.25
2022-10-05T07:47:08.429Z,1012.28
2022-10-05T07:48:08.590Z,1012.23
2022-10-05T07:49:08.762Z,1012.24
2022-10-05T07:50:08.927Z,1012.23
2022-10-05T07:51:09.079Z,1012.24
2022-10-05T07:52:09.236Z,1012.22
2022-10-05T07:53:09.402Z,1012.25
2022-10-05T07:54:09.570Z,1012.26
2022-10-05T07:55:09.741Z,1012.22
2022-10-05T07:56:09.900Z,1012.23
2022-10-05T07:57:10.063Z,1012.17
2022-10-05T07:58:10.218Z,1012.15
2022-10-05T07:59:10.399Z,1012.18
2022-10-05T08:00:10.570Z,1012.09
2022-10-05T08:01:10.717Z,1012.22
2022-10-05T08:02:11.023Z,1012.21
2022-10-05T08:03:11.054Z,1012.14
2022-10-05T08:04:11.167Z,1012.21
2022-10-05T08:05:11.327Z,1012.27
2022-10-05T08:06:11.490Z,1012.32
2022-10-05T08:07:11.728Z,1012.28
2022-10-05T08:08:14.271Z,1012.28
2022-10-05T08:09:12.906Z,1012.27
2022-10-05T08:10:12.074Z,1012.24
2022-10-05T08:11:12.231Z,1012.22
2022-10-05T08:12:12.399Z,1012.20
2022-10-05T08:13:12.570Z,1012.17
2022-10-05T08:14:12.730Z,1012.09
2022-10-05T08:15:12.885Z,1012.01
2022-10-05T08:16:13.075Z,1011.97
2022-10-05T08:17:13.234Z,1011.98
2022-10-05T08:18:13.424Z,1011.98
2022-10-05T08:19:13.590Z,1011.93
2022-10-05T08:20:13.869Z,1011.93
2022-10-05T08:21:13.907Z,1011.95
2022-10-05T08:22:14.086Z,1011.90
2022-10-05T08:23:14.241Z,1011.88
2022-10-05T08:24:14.406Z,1011.87
2022-10-05T08:25:14.588Z,1011.89
2022-10-05T08:26:14.734Z,1011.93
2022-10-05T08:27:14.883Z,1011.88
2022-10-05T08:28:15.066Z,1011.92
2022-10-05T08:29:15.237Z,1011.84
2022-10-05T08:30:15.407Z,1011.83
2022-10-05T08:31:15.563Z,1011.78
2022-10-05T08:32:15.723Z,1011.80
2022-10-05T08:33:15.867Z,1011.78
2022-10-05T08:34:16.011Z,1011.72
2022-10-05T08:35:16.196Z,1011.66
2022-10-05T08:36:16.359Z,1011.63
2022-10-05T08:37:16.512Z,1011.68
2022-10-05T08:38:16.714Z,1011.72
2022-10-05T08:39:16.751Z,1011.72
2022-10-05T08:40:16.914Z,1011.72
2022-10-05T08:41:17.057Z,1011.75
2022-10-05T08:42:17.203Z,1011.73
2022-10-05T08:43:17.343Z,1011.71
2022-10-05T08:45:31.486Z,1011.66
2022-10-05T08:46:31.756Z,1011.64
2022-10-05T08:47:31.829Z,1011.61
2022-10-05T08:48:31.979Z,1011.66
2022-10-05T08:49:35.345Z,1011.70
2022-10-05T08:50:32.267Z,1011.64
2022-10-05T08:51:32.430Z,1011.64
2022-10-05T08:52:32.614Z,1011.67
2022-10-05T08:53:32.756Z,1011.60
2022-10-05T08:54:32.912Z,1011.64
2022-10-05T08:55:33.099Z,1011.62
2022-10-05T08:56:33.283Z,1011.56
2022-10-05T08:57:33.965Z,1011.56
2022-10-05T08:58:33.572Z,1011.53
2022-10-05T08:59:33.701Z,1011.50
2022-10-05T09:00:33.866Z,1011.53
2022-10-05T09:01:34.023Z,1011.48
2022-10-05T09:02:34.279Z,1011.56
2022-10-05T09:03:34.767Z,1011.50
2022-10-05T09:04:34.497Z,1011.45
2022-10-05T09:05:34.664Z,1011.47
2022-10-05T09:06:34.812Z,1011.47
2022-10-05T09:07:35.930Z,1011.44
2022-10-05T09:08:35.064Z,1011.41
2022-10-05T09:09:35.238Z,1011.45
2022-10-05T09:10:35.380Z,1011.40
2022-10-05T09:11:35.539Z,1011.48
2022-10-05T09:12:35.686Z,1011.46
2022-10-05T09:13:35.847Z,1011.44
2022-10-05T09:14:35.996Z,1011.45
2022-10-05T09:15:36.185Z,1011.43
2022-10-05T09:16:36.309Z,1011.40
2022-10-05T09:17:39.358Z,1011.40
2022-10-05T09:18:36.754Z,1011.40
2022-10-05T09:19:36.792Z,1011.42
2022-10-05T09:20:36.945Z,1011.49
2022-10-05T09:21:37.096Z,1011.44
2022-10-05T09:22:37.254Z,1011.44
2022-10-05T09:23:37.404Z,1011.45
2022-10-05T09:24:37.554Z,1011.40
2022-10-05T09:25:37.707Z,1011.36
2022-10-05T09:26:37.855Z,1011.37
2022-10-05T09:27:38.045Z,1011.40
2022-10-05T09:28:38.211Z,1011.39
2022-10-05T09:29:38.400Z,1011.28
2022-10-05T09:30:38.624Z,1011.36
2022-10-05T09:31:38.713Z,1011.41
2022-10-05T09:32:38.866Z,1011.37
2022-10-05T09:33:39.016Z,1011.44
2022-10-05T09:34:39.164Z,1011.40
2022-10-05T09:35:39.332Z,1011.40
2022-10-05T09:36:39.481Z,1011.36
2022-10-05T09:37:39.679Z,1011.39
2022-10-05T09:38:39.826Z,1011.37
2022-10-05T09:39:39.984Z,1011.41
2022-10-05T09:40:40.133Z,1011.35
2022-10-05T09:41:40.310Z,1011.37
2022-10-05T09:42:40.450Z,1011.30
2022-10-05T09:43:40.613Z,1011.34
2022-10-05T09:44:40.819Z,1011.35
2022-10-05T09:45:40.978Z,1011.31
2022-10-05T09:46:41.155Z,1011.29
2022-10-05T09:47:41.289Z,1011.35
2022-10-05T09:48:41.442Z,1011.35
2022-10-05T09:49:41.615Z,1011.41
2022-10-05T09:50:41.772Z,1011.35
2022-10-05T09:51:41.921Z,1011.37
2022-10-05T09:52:42.071Z,1011.28
2022-10-05T09:53:42.221Z,1011.28
2022-10-05T09:54:42.368Z,1011.32
2022-10-05T09:55:42.525Z,1011.28
2022-10-05T09:56:42.680Z,1011.35
2022-10-05T09:57:42.831Z,1011.22
2022-10-05T09:58:42.989Z,1011.25
2022-10-05T09:59:43.156Z,1011.17
2022-10-05T10:00:50.070Z,1011.17
2022-10-05T10:01:44.448Z,1011.16
2022-10-05T10:02:43.634Z,1011.13
2022-10-05T10:03:43.689Z,1011.07
2022-10-05T10:04:43.831Z,1011.07
2022-10-05T10:05:43.984Z,1011.08
2022-10-05T10:06:44.126Z,1011.08
2022-10-05T10:07:44.279Z,1011.05
2022-10-05T10:08:44.415Z,1011.10
2022-10-05T10:09:44.564Z,1011.16
2022-10-05T10:10:44.680Z,1011.08
2022-10-05T10:11:45.076Z,1011.09
2022-10-05T10:12:44.960Z,1011.05
2022-10-05T10:13:45.092Z,1011.05
2022-10-05T10:14:45.213Z,1011.04
2022-10-05T10:15:45.412Z,1011.07
2022-10-05T10:16:45.423Z,1011.05
2022-10-05T10:17:45.572Z,1011.14
2022-10-05T10:18:45.705Z,1011.01
2022-10-05T10:19:45.836Z,1011.13
2022-10-05T10:20:45.973Z,1010.93
2022-10-05T10:21:46.380Z,1011.05
2022-10-05T10:22:46.230Z,1010.94
2022-10-05T10:23:46.362Z,1011.08
2022-10-05T10:24:46.497Z,1010.98
2022-10-05T10:25:46.647Z,1010.99
2022-10-05T10:26:46.770Z,1011.06
2022-10-05T10:27:51.620Z,1011.07
2022-10-05T10:28:48.000Z,1011.07
2022-10-05T10:29:47.126Z,1011.07
2022-10-05T10:30:47.309Z,1011.06
2022-10-05T10:31:47.625Z,1011.08
2022-10-05T10:32:47.593Z,1011.14
2022-10-05T10:33:47.731Z,1011.04
2022-10-05T10:34:47.861Z,1011.13
2022-10-05T10:35:48.000Z,1011.09
2022-10-05T10:36:48.372Z,1011.15
2022-10-05T10:37:48.339Z,1011.14
2022-10-05T10:38:48.472Z,1011.18
2022-10-05T10:39:48.610Z,1011.18
2022-10-05T10:40:48.745Z,1011.16
2022-10-05T10:41:48.890Z,1011.14
2022-10-05T10:42:49.031Z,1011.14
2022-10-05T10:43:49.180Z,1011.13
2022-10-05T10:44:49.311Z,1011.18
2022-10-05T10:45:49.462Z,1011.12
2022-10-05T10:46:49.799Z,1011.17
2022-10-05T10:47:49.752Z,1011.21
2022-10-05T10:48:49.882Z,1011.21
2022-10-05T10:49:50.024Z,1011.16
2022-10-05T10:50:50.173Z,1011.21
2022-10-05T10:51:50.301Z,1011.28
2022-10-05T10:52:50.450Z,1011.17
2022-10-05T10:53:50.569Z,1011.13
2022-10-05T10:54:50.707Z,1011.19
2022-10-05T10:55:50.818Z,1011.16
2022-10-05T10:56:51.425Z,1011.32
2022-10-05T10:57:51.099Z,1011.19
2022-10-05T10:58:51.090Z,1011.08
2022-10-05T10:59:51.200Z,1011.09
2022-10-05T11:00:51.310Z,1011.11
2022-10-05T11:01:51.971Z,1011.22
2022-10-05T11:02:51.614Z,1011.17
2022-10-05T11:03:51.614Z,1011.17
2022-10-05T11:04:51.713Z,1011.12
2022-10-05T11:05:51.840Z,1011.08
2022-10-05T11:06:51.924Z,1011.08
2022-10-05T11:07:52.031Z,1011.07
2022-10-05T11:08:52.104Z,1011.07
2022-10-05T11:09:52.191Z,1011.00
2022-10-05T11:10:52.274Z,1010.97
2022-10-05T11:11:52.490Z,1010.95
2022-10-05T11:12:52.455Z,1011.01
2022-10-05T11:13:52.522Z,1010.93
2022-10-05T11:14:52.585Z,1010.91
2022-10-05T11:15:52.772Z,1010.90
2022-10-05T11:16:52.747Z,1010.96
2022-10-05T11:17:52.830Z,1011.02
2022-10-05T11:18:52.898Z,1010.90
2022-10-05T11:20:03.501Z,1010.77
2022-10-05T11:20:53.983Z,1010.81
2022-10-05T11:21:53.060Z,1010.87
2022-10-05T11:22:53.095Z,1010.87
2022-10-05T11:23:53.152Z,1010.84
2022-10-05T11:24:53.221Z,1010.75
2022-10-05T11:25:53.279Z,1010.75
2022-10-05T11:26:53.412Z,1010.67
2022-10-05T11:27:53.423Z,1010.66
2022-10-05T11:28:53.350Z,1010.65
2022-10-05T11:29:53.432Z,1010.60
2022-10-05T11:30:53.501Z,1010.70
2022-10-05T11:31:53.984Z,1010.70
2022-10-05T11:32:53.612Z,1010.68
2022-10-05T11:33:53.673Z,1010.60
2022-10-05T11:34:53.752Z,1010.61
2022-10-05T11:35:53.807Z,1010.66
2022-10-05T11:36:53.865Z,1010.55
2022-10-05T11:37:53.922Z,1010.46
2022-10-05T11:38:53.983Z,1010.51
2022-10-05T11:39:54.055Z,1010.43
2022-10-05T11:40:54.113Z,1010.40
2022-10-05T11:41:54.194Z,1010.31
2022-10-05T11:42:54.266Z,1010.35
2022-10-05T11:43:54.335Z,1010.30
2022-10-05T11:44:54.429Z,1010.34
2022-10-05T11:45:54.514Z,1010.34
2022-10-05T11:46:54.685Z,1010.33
2022-10-05T11:47:54.668Z,1010.28
2022-10-05T11:48:54.766Z,1010.33
2022-10-05T11:49:54.885Z,1010.36
2022-10-05T11:50:54.993Z,1010.39
2022-10-05T11:51:55.092Z,1010.31
2022-10-05T11:52:55.204Z,1010.33
2022-10-05T11:53:55.303Z,1010.32
2022-10-05T11:55:12.084Z,1010.28
2022-10-05T11:55:56.522Z,1010.26
2022-10-05T11:56:56.163Z,1010.27
2022-10-05T11:57:56.181Z,1010.28
2022-10-05T11:58:55.731Z,1010.24
2022-10-05T11:59:55.862Z,1010.28
2022-10-05T12:00:56.822Z,1010.29
2022-10-05T12:01:56.127Z,1010.35
2022-10-05T12:02:56.359Z,1010.29
2022-10-05T12:03:56.515Z,1010.24
2022-10-05T12:04:56.519Z,1010.27
2022-10-05T12:05:56.693Z,1010.27
2022-10-05T12:06:56.687Z,1010.37
2022-10-05T12:07:56.807Z,1010.26
2022-10-05T12:08:56.940Z,1010.27